createdAt,value
2022-09-26T00:01:16.164Z,8.10
2022-09-26T00:03:44.751Z,10.70
2022-09-26T00:06:12.751Z,9.20
2022-09-26T00:08:40.185Z,9.37
2022-09-26T00:11:08.745Z,6.80
2022-09-26T00:13:37.639Z,6.97
2022-09-26T00:16:04.409Z,10.00
2022-09-26T00:18:30.903Z,10.80
2022-09-26T00:21:24.587Z,8.77
2022-09-26T00:23:51.904Z,10.23
2022-09-26T00:26:20.560Z,6.03
2022-09-26T00:28:47.782Z,6.70
2022-09-26T00:31:18.845Z,11.87
2022-09-26T00:33:45.532Z,9.67
2022-09-26T00:36:12.024Z,5.53
2022-09-26T00:38:39.301Z,6.63
2022-09-26T00:41:08.068Z,8.03
2022-09-26T00:43:35.948Z,8.65
2022-09-26T00:46:27.725Z,9.40
2022-09-26T00:49:28.252Z,11.67
2022-09-26T00:51:59.733Z,4.20
2022-09-26T00:54:29.370Z,5.20
2022-09-26T00:57:00.266Z,6.13
2022-09-26T00:59:30.749Z,8.70
2022-09-26T01:01:59.259Z,5.87
2022-09-26T01:04:28.397Z,10.30
2022-09-26T01:06:58.145Z,6.13
2022-09-26T01:09:25.995Z,7.77
2022-09-26T01:11:53.695Z,10.13
2022-09-26T01:14:21.653Z,8.43
2022-09-26T01:16:53.492Z,9.63
2022-09-26T01:19:26.342Z,6.70
2022-09-26T01:22:19.156Z,7.07
2022-09-26T01:25:12.179Z,5.97
2022-09-26T01:28:06.348Z,10.10
2022-09-26T01:30:41.800Z,6.73
2022-09-26T01:33:36.222Z,9.60
2022-09-26T01:36:27.579Z,7.63
2022-09-26T01:39:14.222Z,5.95
2022-09-26T01:42:03.989Z,9.03
2022-09-26T01:44:48.634Z,9.00
2022-09-26T01:47:27.617Z,6.55
2022-09-26T01:50:05.267Z,8.33
2022-09-26T01:52:46.603Z,6.63
2022-09-26T01:55:31.086Z,12.33
2022-09-26T01:58:06.808Z,5.67
2022-09-26T02:00:35.541Z,7.18
2022-09-26T02:03:04.954Z,10.27
2022-09-26T02:06:04.071Z,7.53
2022-09-26T02:08:51.348Z,9.40
2022-09-26T02:11:19.909Z,6.85
2022-09-26T02:13:57.812Z,6.97
2022-09-26T02:16:41.769Z,5.65
2022-09-26T02:19:17.233Z,8.48
2022-09-26T02:21:44.214Z,9.40
2022-09-26T02:24:10.770Z,6.53
2022-09-26T02:26:37.488Z,7.13
2022-09-26T02:29:05.376Z,8.53
2022-09-26T02:31:36.545Z,6.73
2022-09-26T02:34:04.134Z,8.67
2022-09-26T02:36:33.667Z,8.00
2022-09-26T02:39:01.273Z,10.33
2022-09-26T02:41:51.771Z,7.20
2022-09-26T02:44:43.578Z,9.87
2022-09-26T02:47:22.503Z,6.50
2022-09-26T02:50:13.610Z,11.67
2022-09-26T02:52:46.272Z,9.10
2022-09-26T02:55:12.768Z,10.97
2022-09-26T02:57:50.110Z,10.13
2022-09-26T03:00:22.278Z,8.60
2022-09-26T03:03:04.641Z,13.47
2022-09-26T03:05:32.637Z,13.70
2022-09-26T03:08:11.078Z,10.67
2022-09-26T03:10:38.232Z,6.53
2022-09-26T03:13:16.157Z,8.37
2022-09-26T03:15:48.736Z,11.80
2022-09-26T03:18:21.212Z,12.00
2022-09-26T03:20:48.768Z,8.67
2022-09-26T03:23:15.996Z,9.93
2022-09-26T03:25:42.753Z,9.87
2022-09-26T03:28:10.547Z,12.17
2022-09-26T03:30:37.297Z,9.47
2022-09-26T03:33:03.935Z,10.37
2022-09-26T03:35:30.366Z,9.10
2022-09-26T03:37:56.819Z,6.10
2022-09-26T03:40:23.359Z,8.63
2022-09-26T03:42:50.258Z,9.27
2022-09-26T03:45:17.386Z,12.33
2022-09-26T03:47:43.878Z,8.27
2022-09-26T03:50:10.536Z,9.67
2022-09-26T03:52:36.978Z,11.60
2022-09-26T03:55:04.935Z,12.90
2022-09-26T03:57:31.422Z,9.77
2022-09-26T03:59:57.933Z,10.57
2022-09-26T04:02:24.498Z,9.07
2022-09-26T04:04:51.105Z,8.13
2022-09-26T04:07:17.587Z,9.20
2022-09-26T04:09:44.221Z,11.27
2022-09-26T04:12:10.758Z,6.43
2022-09-26T04:14:37.338Z,12.93
2022-09-26T04:17:03.947Z,7.93
2022-09-26T04:19:30.479Z,5.60
2022-09-26T04:21:57.009Z,5.90
2022-09-26T04:24:23.487Z,9.93
2022-09-26T04:26:49.966Z,7.77
2022-09-26T04:29:16.972Z,5.90
2022-09-26T04:31:43.864Z,4.90
2022-09-26T04:34:11.605Z,6.53
2022-09-26T04:36:38.795Z,5.90
2022-09-26T04:39:09.881Z,4.10
2022-09-26T04:41:37.644Z,8.17
2022-09-26T04:44:04.239Z,5.90
2022-09-26T04:46:31.512Z,6.60
2022-09-26T04:49:00.426Z,5.60
2022-09-26T04:51:28.378Z,5.40
2022-09-26T04:53:55.210Z,6.83
2022-09-26T04:56:23.435Z,8.67
2022-09-26T04:58:50.135Z,7.37
2022-09-26T05:01:19.135Z,5.57
2022-09-26T05:03:46.302Z,4.93
2022-09-26T05:06:14.701Z,6.23
2022-09-26T05:08:44.714Z,7.07
2022-09-26T05:11:11.199Z,5.17
2022-09-26T05:13:38.910Z,7.30
2022-09-26T05:16:08.850Z,4.90
2022-09-26T05:18:37.019Z,4.93
2022-09-26T05:21:06.565Z,5.83
2022-09-26T05:23:52.451Z,4.97
2022-09-26T05:26:29.437Z,6.17
2022-09-26T05:29:06.821Z,3.93
2022-09-26T05:31:37.480Z,6.30
2022-09-26T05:34:13.046Z,6.37
2022-09-26T05:36:42.743Z,5.03
2022-09-26T05:39:27.853Z,7.00
2022-09-26T05:41:54.917Z,5.90
2022-09-26T05:44:21.407Z,7.47
2022-09-26T05:46:48.576Z,6.83
2022-09-26T05:49:15.275Z,7.87
2022-09-26T05:51:41.879Z,8.37
2022-09-26T05:54:08.340Z,5.07
2022-09-26T05:56:37.416Z,8.73
2022-09-26T05:59:04.575Z,5.43
2022-09-26T06:01:32.830Z,5.70
2022-09-26T06:03:59.927Z,7.03
2022-09-26T06:06:26.551Z,8.50
2022-09-26T06:08:53.000Z,7.23
2022-09-26T06:11:28.029Z,10.23
2022-09-26T06:13:55.874Z,8.77
2022-09-26T06:16:22.583Z,4.87
2022-09-26T06:18:51.058Z,5.00
2022-09-26T06:21:19.395Z,7.03
2022-09-26T06:23:46.189Z,6.23
2022-09-26T06:26:28.937Z,7.97
2022-09-26T06:29:01.001Z,8.03
2022-09-26T06:31:28.621Z,6.30
2022-09-26T06:33:55.745Z,4.83
2022-09-26T06:36:24.145Z,6.10
2022-09-26T06:38:51.635Z,7.30
2022-09-26T06:41:18.288Z,4.57
2022-09-26T06:43:45.443Z,8.27
2022-09-26T06:46:13.310Z,4.53
2022-09-26T06:48:39.822Z,5.00
2022-09-26T06:51:07.161Z,4.53
2022-09-26T06:53:35.109Z,7.63
2022-09-26T06:56:02.102Z,8.03
2022-09-26T06:58:28.709Z,4.73
2022-09-26T07:00:55.721Z,4.93
2022-09-26T07:03:24.601Z,4.90
2022-09-26T07:05:51.758Z,7.47
2022-09-26T07:08:18.257Z,7.83
2022-09-26T07:10:44.809Z,8.63
2022-09-26T07:13:11.318Z,4.53
2022-09-26T07:15:37.995Z,8.00
2022-09-26T07:18:06.446Z,3.83
2022-09-26T07:20:36.960Z,7.03
2022-09-26T07:23:05.340Z,6.00
2022-09-26T07:25:33.287Z,7.63
2022-09-26T07:28:00.613Z,6.83
2022-09-26T07:30:28.436Z,6.37
2022-09-26T07:33:03.839Z,8.77
2022-09-26T07:35:32.862Z,6.77
2022-09-26T07:37:59.687Z,5.60
2022-09-26T07:40:27.685Z,4.00
2022-09-26T07:43:15.665Z,7.65
2022-09-26T07:46:03.689Z,6.63
2022-09-26T07:48:48.502Z,6.43
2022-09-26T07:51:16.247Z,8.03
2022-09-26T07:53:42.728Z,4.57
2022-09-26T07:56:12.733Z,6.77
2022-09-26T07:58:44.591Z,9.00
2022-09-26T08:01:13.153Z,7.33
2022-09-26T08:03:49.162Z,8.50
2022-09-26T08:06:20.260Z,5.70
2022-09-26T08:08:48.218Z,6.60
2022-09-26T08:11:19.539Z,11.37
2022-09-26T08:13:47.291Z,7.47
2022-09-26T08:16:23.472Z,8.17
2022-09-26T08:18:51.440Z,7.95
2022-09-26T08:21:18.365Z,9.38
2022-09-26T08:23:46.816Z,6.20
2022-09-26T08:26:14.175Z,7.95
2022-09-26T08:28:41.078Z,7.07
2022-09-26T08:31:08.251Z,6.68
2022-09-26T08:33:36.223Z,5.30
2022-09-26T08:36:11.251Z,7.65
2022-09-26T08:38:38.291Z,4.85
2022-09-26T08:41:32.740Z,6.18
2022-09-26T08:44:22.920Z,6.53
2022-09-26T08:47:05.914Z,7.35
2022-09-26T08:49:48.310Z,9.63
2022-09-26T08:52:29.741Z,10.13
2022-09-26T08:55:32.891Z,11.53
2022-09-26T08:58:04.267Z,8.63
2022-09-26T09:00:38.432Z,8.20
2022-09-26T09:03:10.949Z,8.98
2022-09-26T09:05:42.515Z,9.93
2022-09-26T09:08:25.817Z,8.07
2022-09-26T09:11:02.499Z,10.68
2022-09-26T09:13:53.907Z,7.20
2022-09-26T09:16:29.597Z,10.43
2022-09-26T09:19:27.762Z,10.93
2022-09-26T09:22:06.109Z,13.00
2022-09-26T09:25:05.972Z,10.02
2022-09-26T09:28:08.146Z,19.30
2022-09-26T09:30:45.423Z,9.80
2022-09-26T09:33:17.708Z,15.15
2022-09-26T09:35:49.482Z,13.75
2022-09-26T09:38:19.789Z,13.20
2022-09-26T09:41:05.097Z,8.07
2022-09-26T09:43:58.095Z,13.52
2022-09-26T09:46:36.185Z,18.50
2022-09-26T09:49:19.014Z,12.35
2022-09-26T09:52:03.784Z,12.73
2022-09-26T09:54:51.610Z,7.13
2022-09-26T09:58:15.526Z,10.93
2022-09-26T10:00:53.879Z,11.73
2022-09-26T10:03:45.933Z,9.32
2022-09-26T10:06:46.217Z,12.18
2022-09-26T10:09:38.674Z,13.13
2022-09-26T10:11:59.068Z,13.63
2022-09-26T10:14:39.578Z,12.20
2022-09-26T10:17:09.123Z,9.45
2022-09-26T10:19:37.667Z,10.68
2022-09-26T10:22:09.544Z,8.00
2022-09-26T10:24:41.603Z,9.05
2022-09-26T10:27:23.716Z,7.70
2022-09-26T10:29:58.948Z,8.25
2022-09-26T10:32:26.760Z,10.60
2022-09-26T10:35:07.881Z,9.55
2022-09-26T10:37:37.119Z,11.80
2022-09-26T10:40:40.864Z,9.75
2022-09-26T10:43:28.838Z,9.40
2022-09-26T10:46:02.470Z,7.68
2022-09-26T10:48:43.379Z,11.00
2022-09-26T10:51:11.159Z,6.95
2022-09-26T10:53:40.329Z,9.02
2022-09-26T10:56:11.944Z,8.32
2022-09-26T10:58:44.938Z,8.05
2022-09-26T11:01:27.789Z,6.75
2022-09-26T11:03:57.504Z,8.75
2022-09-26T11:06:29.705Z,6.88
2022-09-26T11:09:00.500Z,5.80
2022-09-26T11:11:27.986Z,7.93
2022-09-26T11:14:03.883Z,10.60
2022-09-26T11:16:39.542Z,7.85
2022-09-26T11:19:21.958Z,7.50
2022-09-26T11:21:58.531Z,7.60
2022-09-26T11:24:37.472Z,8.32
2022-09-26T11:27:19.460Z,6.38
2022-09-26T11:30:10.905Z,6.90
2022-09-26T11:32:43.868Z,4.78
2022-09-26T11:35:16.390Z,6.20
2022-09-26T11:38:05.656Z,4.85
2022-09-26T11:40:32.319Z,5.88
2022-09-26T11:43:25.204Z,5.10
2022-09-26T11:46:37.031Z,6.13
2022-09-26T11:49:48.298Z,5.32
2022-09-26T11:52:49.222Z,3.58
2022-09-26T11:55:37.229Z,6.75
2022-09-26T11:58:22.383Z,4.65
2022-09-26T12:01:11.402Z,4.93
2022-09-26T12:03:40.762Z,4.57
2022-09-26T12:06:33.683Z,5.75
2022-09-26T12:09:22.154Z,6.18
2022-09-26T12:11:58.096Z,3.53
2022-09-26T12:15:08.555Z,3.92
2022-09-26T12:18:13.255Z,3.97
2022-09-26T12:21:07.515Z,3.38
2022-09-26T12:23:57.281Z,3.25
2022-09-26T12:26:39.866Z,4.05
2022-09-26T12:29:28.621Z,4.00
2022-09-26T12:32:20.238Z,4.95
2022-09-26T12:35:19.897Z,5.45
2022-09-26T12:37:57.494Z,3.75
2022-09-26T12:40:43.287Z,4.30
2022-09-26T12:43:21.573Z,6.78
2022-09-26T12:46:00.362Z,4.60
2022-09-26T12:49:03.924Z,4.15
2022-09-26T12:51:49.119Z,5.15
2022-09-26T12:54:40.517Z,3.30
2022-09-26T12:57:14.758Z,3.50
2022-09-26T13:00:10.331Z,5.35
2022-09-26T13:02:51.165Z,4.30
2022-09-26T13:05:31.129Z,3.22
2022-09-26T13:08:15.679Z,3.40
2022-09-26T13:11:12.939Z,2.38
2022-09-26T13:13:59.160Z,2.85
2022-09-26T13:16:44.411Z,4.38
2022-09-26T13:19:23.847Z,3.10
2022-09-26T13:21:54.283Z,5.20
2022-09-26T13:24:35.027Z,2.53
2022-09-26T13:27:30.008Z,2.95
2022-09-26T13:30:29.315Z,3.40
2022-09-26T13:33:20.833Z,4.57
2022-09-26T13:35:51.365Z,2.20
2022-09-26T13:38:20.593Z,3.20
2022-09-26T13:41:15.017Z,3.38
2022-09-26T13:44:03.638Z,2.60
2022-09-26T13:46:42.324Z,2.65
2022-09-26T13:49:30.608Z,3.53
2022-09-26T13:52:02.926Z,3.33
2022-09-26T13:54:45.399Z,6.88
2022-09-26T13:57:36.892Z,4.15
2022-09-26T14:00:34.964Z,3.42
2022-09-26T14:03:13.278Z,2.63
2022-09-26T14:05:48.156Z,3.55
2022-09-26T14:08:43.002Z,4.60
2022-09-26T14:11:19.005Z,3.22
2022-09-26T14:13:47.595Z,1.55
2022-09-26T14:16:35.687Z,3.22
2022-09-26T14:19:15.889Z,3.42
2022-09-26T14:22:25.208Z,3.13
2022-09-26T14:24:52.566Z,2.17
2022-09-26T14:27:19.134Z,3.00
2022-09-26T14:30:18.201Z,4.43
2022-09-26T14:32:46.904Z,3.13
2022-09-26T14:35:43.241Z,2.90
2022-09-26T14:38:16.277Z,4.47
2022-09-26T14:41:22.453Z,2.95
2022-09-26T14:43:51.074Z,4.53
2022-09-26T14:46:24.058Z,3.90
2022-09-26T14:49:01.751Z,2.90
2022-09-26T14:51:32.414Z,2.45
2022-09-26T14:54:07.251Z,4.80
2022-09-26T14:57:02.551Z,3.15
2022-09-26T14:59:35.049Z,2.00
2022-09-26T15:02:14.344Z,1.75
2022-09-26T15:04:42.689Z,3.17
2022-09-26T15:07:27.784Z,3.10
2022-09-26T15:10:09.178Z,2.88
2022-09-26T15:12:47.792Z,2.88
2022-09-26T15:15:40.721Z,3.22
2022-09-26T15:18:25.913Z,6.75
2022-09-26T15:21:04.026Z,3.65
2022-09-26T15:23:34.224Z,5.47
2022-09-26T15:26:06.311Z,3.75
2022-09-26T15:28:34.921Z,3.55
2022-09-26T15:31:20.578Z,4.25
2022-09-26T15:34:04.441Z,4.25
2022-09-26T15:36:34.720Z,5.05
2022-09-26T15:39:22.568Z,6.40
2022-09-26T15:42:07.726Z,2.00
2022-09-26T15:44:35.420Z,6.40
2022-09-26T15:47:26.742Z,2.70
2022-09-26T15:50:22.640Z,3.45
2022-09-26T15:53:00.224Z,3.42
2022-09-26T15:55:45.421Z,2.40
2022-09-26T15:58:17.412Z,5.00
2022-09-26T16:00:48.344Z,5.18
2022-09-26T16:03:20.968Z,3.53
2022-09-26T16:05:48.143Z,4.97
2022-09-26T16:08:28.282Z,5.45
2022-09-26T16:11:00.201Z,4.05
2022-09-26T16:13:33.450Z,4.68
2022-09-26T16:16:09.147Z,4.85
2022-09-26T16:18:47.221Z,4.03
2022-09-26T16:21:17.870Z,2.28
2022-09-26T16:23:50.417Z,8.98
2022-09-26T16:26:21.777Z,9.82
2022-09-26T16:28:52.880Z,10.75
2022-09-26T16:31:29.144Z,9.73
2022-09-26T16:33:58.487Z,4.55
2022-09-26T16:36:29.548Z,9.07
2022-09-26T16:39:01.921Z,8.23
2022-09-26T16:44:34.472Z,9.93
2022-09-26T16:47:05.574Z,2.83
2022-09-26T16:49:45.990Z,14.30
2022-09-26T16:52:27.101Z,3.50
2022-09-26T16:54:59.797Z,11.63
2022-09-26T16:57:35.315Z,10.25
2022-09-26T17:00:34.692Z,4.95
2022-09-26T17:03:02.041Z,11.63
2022-09-26T17:05:28.875Z,5.25
2022-09-26T17:07:55.511Z,6.05
2022-09-26T17:10:24.915Z,3.75
2022-09-26T17:12:53.041Z,9.00
2022-09-26T17:15:27.398Z,17.60
2022-09-26T17:17:54.871Z,17.52
2022-09-26T17:20:22.243Z,11.73
2022-09-26T17:22:49.148Z,15.93
2022-09-26T17:25:16.387Z,17.05
2022-09-26T17:27:43.464Z,16.10
2022-09-26T17:30:18.744Z,14.23
2022-09-26T17:32:49.869Z,18.60
2022-09-26T17:35:22.712Z,19.38
2022-09-26T17:37:52.063Z,17.48
2022-09-26T17:40:24.327Z,22.77
2022-09-26T17:42:55.555Z,22.73
2022-09-26T17:45:32.184Z,19.63
2022-09-26T17:48:04.556Z,16.02
2022-09-26T17:50:41.615Z,17.60
2022-09-26T17:55:59.932Z,15.25
2022-09-26T17:58:27.021Z,11.95
2022-09-26T18:00:57.733Z,14.52
2022-09-26T18:03:30.713Z,14.75
2022-09-26T18:06:01.375Z,17.50
2022-09-26T18:08:30.973Z,8.15
2022-09-26T18:11:03.522Z,11.05
2022-09-26T18:13:35.735Z,17.75
2022-09-26T18:16:03.301Z,8.35
2022-09-26T18:18:32.218Z,12.48
2022-09-26T18:21:04.122Z,9.27
2022-09-26T18:24:02.298Z,13.35
2022-09-26T18:26:47.623Z,19.00
2022-09-26T18:29:20.956Z,15.55
2022-09-26T18:31:48.613Z,16.35
2022-09-26T18:34:21.644Z,14.82
2022-09-26T18:36:50.167Z,15.70
2022-09-26T18:39:17.097Z,15.65
2022-09-26T18:41:45.234Z,19.10
2022-09-26T18:44:16.993Z,15.45
2022-09-26T18:46:46.823Z,11.15
2022-09-26T18:49:14.367Z,9.43
2022-09-26T18:51:41.114Z,16.35
2022-09-26T18:54:13.828Z,10.95
2022-09-26T18:56:59.529Z,18.90
2022-09-26T18:59:29.061Z,11.48
2022-09-26T19:01:56.370Z,13.52
2022-09-26T19:04:23.475Z,14.57
2022-09-26T19:07:01.373Z,11.95
2022-09-26T19:09:35.536Z,14.10
2022-09-26T19:12:03.209Z,9.80
2022-09-26T19:14:30.775Z,12.95
2022-09-26T19:16:58.142Z,14.35
2022-09-26T19:19:25.558Z,13.77
2022-09-26T19:21:56.686Z,11.85
2022-09-26T19:24:31.678Z,13.95
2022-09-26T19:27:06.525Z,15.80
2022-09-26T19:30:16.862Z,14.38
2022-09-26T19:32:53.041Z,14.88
2022-09-26T19:35:34.195Z,9.57
2022-09-26T19:38:03.131Z,14.70
2022-09-26T19:40:29.677Z,10.60
2022-09-26T19:42:57.352Z,12.85
2022-09-26T19:45:24.909Z,14.65
2022-09-26T19:47:54.484Z,13.47
2022-09-26T19:50:25.906Z,13.50
2022-09-26T19:52:54.561Z,11.88
2022-09-26T19:55:26.870Z,9.07
2022-09-26T19:57:54.889Z,13.67
2022-09-26T20:00:21.475Z,14.97
2022-09-26T20:02:51.664Z,8.82
2022-09-26T20:05:21.263Z,10.13
2022-09-26T20:07:47.823Z,6.43
2022-09-26T20:10:19.773Z,7.18
2022-09-26T20:12:48.409Z,5.50
2022-09-26T20:15:16.711Z,5.63
2022-09-26T20:17:44.762Z,6.87
2022-09-26T20:20:17.415Z,8.27
2022-09-26T20:22:44.824Z,6.47
2022-09-26T20:25:25.844Z,7.03
2022-09-26T20:27:53.428Z,5.03
2022-09-26T20:30:39.096Z,5.17
2022-09-26T20:33:06.366Z,6.00
2022-09-26T20:35:40.024Z,7.00
2022-09-26T20:38:11.807Z,6.00
2022-09-26T20:40:40.646Z,3.77
2022-09-26T20:43:14.439Z,5.40
2022-09-26T20:45:44.189Z,5.87
2022-09-26T20:48:19.563Z,4.73
2022-09-26T20:50:48.281Z,5.57
2022-09-26T20:53:20.162Z,12.00
2022-09-26T20:55:47.658Z,5.93
2022-09-26T20:58:14.437Z,10.97
2022-09-26T21:00:42.293Z,5.80
2022-09-26T21:03:11.516Z,5.60
2022-09-26T21:05:38.244Z,6.37
2022-09-26T21:08:14.515Z,5.60
2022-09-26T21:10:41.155Z,5.30
2022-09-26T21:13:08.898Z,3.50
2022-09-26T21:15:35.798Z,7.60
2022-09-26T21:18:02.795Z,6.50
2022-09-26T21:20:32.289Z,4.70
2022-09-26T21:23:01.405Z,7.60
2022-09-26T21:25:30.768Z,4.20
2022-09-26T21:28:06.513Z,6.50
2022-09-26T21:30:33.616Z,5.80
2022-09-26T21:33:00.699Z,5.77
2022-09-26T21:35:32.171Z,7.93
2022-09-26T21:38:01.116Z,4.37
2022-09-26T21:40:31.299Z,5.13
2022-09-26T21:43:03.717Z,7.30
2022-09-26T21:45:30.358Z,2.70
2022-09-26T21:47:57.433Z,8.47
2022-09-26T21:50:26.905Z,4.43
2022-09-26T21:52:59.406Z,19.47
2022-09-26T21:55:38.812Z,3.77
2022-09-26T21:58:09.581Z,3.27
2022-09-26T22:00:36.062Z,3.03
2022-09-26T22:03:02.756Z,10.03
2022-09-26T22:05:29.262Z,8.67
2022-09-26T22:07:56.749Z,12.57
2022-09-26T22:10:23.199Z,7.33
2022-09-26T22:12:52.228Z,7.40
2022-09-26T22:15:19.402Z,8.33
2022-09-26T22:17:45.942Z,9.80
2022-09-26T22:20:12.963Z,5.23
2022-09-26T22:22:39.514Z,7.70
2022-09-26T22:25:06.906Z,9.67
2022-09-26T22:27:34.872Z,4.63
2022-09-26T22:30:01.413Z,5.40
2022-09-26T22:32:28.002Z,6.00
2022-09-26T22:34:54.527Z,5.87
2022-09-26T22:37:21.043Z,3.90
2022-09-26T22:39:48.092Z,8.37
2022-09-26T22:42:14.893Z,7.17
2022-09-26T22:44:41.355Z,7.17
2022-09-26T22:47:07.980Z,3.73
2022-09-26T22:49:34.536Z,8.23
2022-09-26T22:52:01.187Z,6.93
2022-09-26T22:54:27.736Z,9.80
2022-09-26T22:56:54.439Z,6.40
2022-09-26T22:59:21.061Z,5.53
2022-09-26T23:01:48.143Z,8.97
2022-09-26T23:04:14.663Z,5.87
2022-09-26T23:06:41.128Z,6.70
2022-09-26T23:09:07.789Z,7.50
2022-09-26T23:11:34.363Z,9.07
2022-09-26T23:14:00.897Z,14.17
2022-09-26T23:16:27.874Z,8.73
2022-09-26T23:18:55.184Z,6.57
2022-09-26T23:21:23.836Z,6.73
2022-09-26T23:23:52.779Z,6.77
2022-09-26T23:26:23.721Z,6.80
2022-09-26T23:28:51.357Z,5.43
2022-09-26T23:31:18.655Z,3.43
2022-09-26T23:33:45.270Z,9.17
2022-09-26T23:36:12.783Z,7.10
2022-09-26T23:38:40.247Z,7.83
2022-09-26T23:41:08.219Z,4.50
2022-09-26T23:43:34.982Z,3.67
2022-09-26T23:46:01.762Z,5.03
2022-09-26T23:48:28.601Z,3.80
2022-09-26T23:50:55.290Z,10.20
2022-09-26T23:53:22.257Z,2.87
2022-09-26T23:55:48.884Z,4.10
2022-09-26T23:58:15.761Z,4.60
